Airfield :
LOGIN :

Register | Disclaimer

   EN    FR    IT 

 










Legend :    VFR   Marginal VFR   IFR   Intensive IFR   Very Intensive IFR
Visi :
Ceiling :
>= 8 km
>= 3000ft
5 to 8 km
1000 to 3000 ft
1500m to 5 km
500 to 1000 ft
800 to 1500m
200 to 500 ft
< 800m
< 200 ft
Symbols :   Thunderstorms  Fog  Heavy snow  Heavy precipitations  Wind > 20 kt
SIGMETs :     Misc.  Thunderstorms  Icing  Turbulence  Mountain Waves  Volcanic Ashes






- Airport Elevation : 215 ft
- IATA code : ABZ


EGPD - Aberdeen / Dyce

CURRENT METAR :
  • 071520Z AUTO VRB06KT 9999 NCD 21/12 Q1020 NOSIG

EXPIRED METARs :
  • 071450Z AUTO 31011KT 270V350 9999 NCD 23/10 Q1020 NOSIG
  • 071420Z AUTO 27009KT 220V300 9999 NCD 23/10 Q1020 NOSIG
  • 071350Z AUTO 27008KT 230V320 9999 NCD 23/10 Q1020 NOSIG
  • 071320Z AUTO 28007KT 9999 NCD 22/11 Q1020 NOSIG
  • 071250Z AUTO 29006KT 230V340 9999 BKN048 22/11 Q1020

TAF TAF EGPD
Valid from the 07 at 12:00 until the 08 at 12:00 UTC


071056Z 0712/0812 28006KT 9999 BKN045
PROB30
TEMPO 0717/0721 8000 -RA
BECMG 0810/0812 14010KT



MET'MAP, your aeronautical weather chart ! - Copyright ORBIFLY December 2007 - Disclaimer

ORBIFLY MET'MAP TEAM :

Programming & Development : Alexandra Zaïnal
Original concept : Baudouin d'Aumeries
Technical & hardware support : Manuel Goepfert
Assistance : Marc-Olivier Méhu




SOURCES & CREDITS :

   NOAA